sensor_id;sensor_type;location;lat;lon;timestamp;P1;durP1;ratioP1;P2;durP2;ratioP2
80987;SDS011;70452;39.386;-3.210;2023-08-21T00:01:28;8.73;;;2.03;;
80987;SDS011;70452;39.386;-3.210;2023-08-21T00:03:53;7.70;;;2.28;;
80987;SDS011;70452;39.386;-3.210;2023-08-21T00:06:24;5.47;;;1.88;;
80987;SDS011;70452;39.386;-3.210;2023-08-21T00:08:49;6.32;;;2.25;;
80987;SDS011;70452;39.386;-3.210;2023-08-21T00:11:15;6.18;;;1.80;;
80987;SDS011;70452;39.386;-3.210;2023-08-21T00:13:41;8.38;;;2.72;;
80987;SDS011;70452;39.386;-3.210;2023-08-21T00:16:09;5.70;;;2.47;;
80987;SDS011;70452;39.386;-3.210;2023-08-21T00:18:36;5.78;;;2.30;;
80987;SDS011;70452;39.386;-3.210;2023-08-21T00:21:01;7.18;;;1.98;;
80987;SDS011;70452;39.386;-3.210;2023-08-21T00:23:29;6.00;;;2.47;;
80987;SDS011;70452;39.386;-3.210;2023-08-21T00:25:57;6.20;;;2.20;;
80987;SDS011;70452;39.386;-3.210;2023-08-21T00:28:23;5.82;;;1.75;;
80987;SDS011;70452;39.386;-3.210;2023-08-21T00:30:49;5.28;;;1.63;;
80987;SDS011;70452;39.386;-3.210;2023-08-21T00:33:16;6.28;;;2.05;;
80987;SDS011;70452;39.386;-3.210;2023-08-21T00:35:42;5.57;;;2.22;;
80987;SDS011;70452;39.386;-3.210;2023-08-21T00:38:08;9.27;;;2.05;;
80987;SDS011;70452;39.386;-3.210;2023-08-21T00:40:33;7.47;;;2.15;;
80987;SDS011;70452;39.386;-3.210;2023-08-21T00:42:59;7.30;;;2.08;;
80987;SDS011;70452;39.386;-3.210;2023-08-21T00:45:26;7.28;;;1.75;;
80987;SDS011;70452;39.386;-3.210;2023-08-21T00:47:52;4.75;;;1.50;;
80987;SDS011;70452;39.386;-3.210;2023-08-21T00:50:18;7.80;;;2.10;;
80987;SDS011;70452;39.386;-3.210;2023-08-21T00:52:44;4.45;;;1.23;;
80987;SDS011;70452;39.386;-3.210;2023-08-21T00:55:13;6.40;;;2.25;;
80987;SDS011;70452;39.386;-3.210;2023-08-21T00:57:39;8.18;;;1.88;;
80987;SDS011;70452;39.386;-3.210;2023-08-21T01:00:06;7.47;;;1.73;;
80987;SDS011;70452;39.386;-3.210;2023-08-21T01:02:35;5.20;;;1.35;;
80987;SDS011;70452;39.386;-3.210;2023-08-21T01:05:01;6.93;;;1.60;;
80987;SDS011;70452;39.386;-3.210;2023-08-21T01:07:26;8.00;;;1.73;;
80987;SDS011;70452;39.386;-3.210;2023-08-21T01:09:58;7.00;;;1.75;;
80987;SDS011;70452;39.386;-3.210;2023-08-21T01:15:15;7.13;;;1.45;;
80987;SDS011;70452;39.386;-3.210;2023-08-21T01:17:41;11.63;;;1.75;;
80987;SDS011;70452;39.386;-3.210;2023-08-21T01:20:08;5.45;;;1.50;;
80987;SDS011;70452;39.386;-3.210;2023-08-21T01:22:35;5.47;;;1.05;;
80987;SDS011;70452;39.386;-3.210;2023-08-21T01:25:02;5.57;;;1.58;;
80987;SDS011;70452;39.386;-3.210;2023-08-21T01:27:28;5.53;;;1.63;;
80987;SDS011;70452;39.386;-3.210;2023-08-21T01:29:54;6.63;;;2.30;;
80987;SDS011;70452;39.386;-3.210;2023-08-21T01:34:49;5.30;;;1.42;;
80987;SDS011;70452;39.386;-3.210;2023-08-21T01:37:17;4.85;;;1.70;;
80987;SDS011;70452;39.386;-3.210;2023-08-21T01:39:43;9.02;;;2.03;;
80987;SDS011;70452;39.386;-3.210;2023-08-21T01:42:09;7.03;;;1.92;;
80987;SDS011;70452;39.386;-3.210;2023-08-21T01:44:34;7.10;;;2.17;;
80987;SDS011;70452;39.386;-3.210;2023-08-21T01:47:00;4.45;;;1.10;;
80987;SDS011;70452;39.386;-3.210;2023-08-21T01:49:25;7.00;;;1.30;;
80987;SDS011;70452;39.386;-3.210;2023-08-21T01:51:52;7.40;;;1.92;;
80987;SDS011;70452;39.386;-3.210;2023-08-21T01:54:18;5.88;;;2.10;;
80987;SDS011;70452;39.386;-3.210;2023-08-21T01:56:44;6.93;;;1.70;;
80987;SDS011;70452;39.386;-3.210;2023-08-21T01:59:09;6.07;;;1.20;;
80987;SDS011;70452;39.386;-3.210;2023-08-21T02:01:35;4.28;;;1.40;;
80987;SDS011;70452;39.386;-3.210;2023-08-21T02:04:00;6.00;;;2.05;;
80987;SDS011;70452;39.386;-3.210;2023-08-21T02:06:26;8.95;;;1.67;;
80987;SDS011;70452;39.386;-3.210;2023-08-21T02:08:51;6.22;;;1.58;;
80987;SDS011;70452;39.386;-3.210;2023-08-21T02:11:17;5.47;;;1.35;;
80987;SDS011;70452;39.386;-3.210;2023-08-21T02:13:42;7.13;;;1.77;;
80987;SDS011;70452;39.386;-3.210;2023-08-21T02:16:08;6.65;;;1.50;;
80987;SDS011;70452;39.386;-3.210;2023-08-21T02:18:33;5.65;;;1.60;;
80987;SDS011;70452;39.386;-3.210;2023-08-21T02:21:02;6.03;;;2.50;;
80987;SDS011;70452;39.386;-3.210;2023-08-21T02:23:27;6.05;;;1.50;;
80987;SDS011;70452;39.386;-3.210;2023-08-21T02:25:54;5.05;;;1.33;;
80987;SDS011;70452;39.386;-3.210;2023-08-21T02:28:20;6.43;;;1.63;;
80987;SDS011;70452;39.386;-3.210;2023-08-21T02:30:45;5.90;;;1.23;;
80987;SDS011;70452;39.386;-3.210;2023-08-21T02:33:11;5.80;;;1.55;;
80987;SDS011;70452;39.386;-3.210;2023-08-21T02:35:36;7.30;;;1.55;;
80987;SDS011;70452;39.386;-3.210;2023-08-21T02:38:02;6.15;;;1.45;;
80987;SDS011;70452;39.386;-3.210;2023-08-21T02:40:28;6.18;;;1.55;;
80987;SDS011;70452;39.386;-3.210;2023-08-21T02:42:53;7.95;;;1.45;;
80987;SDS011;70452;39.386;-3.210;2023-08-21T02:45:19;8.80;;;1.55;;
80987;SDS011;70452;39.386;-3.210;2023-08-21T02:47:44;7.03;;;1.98;;
80987;SDS011;70452;39.386;-3.210;2023-08-21T02:50:10;8.57;;;2.03;;
80987;SDS011;70452;39.386;-3.210;2023-08-21T02:52:36;7.60;;;1.33;;
80987;SDS011;70452;39.386;-3.210;2023-08-21T02:55:03;6.35;;;1.67;;
80987;SDS011;70452;39.386;-3.210;2023-08-21T02:57:29;4.38;;;1.52;;
80987;SDS011;70452;39.386;-3.210;2023-08-21T02:59:55;5.93;;;1.23;;
80987;SDS011;70452;39.386;-3.210;2023-08-21T03:02:20;7.13;;;1.63;;
80987;SDS011;70452;39.386;-3.210;2023-08-21T03:04:46;5.43;;;1.30;;
80987;SDS011;70452;39.386;-3.210;2023-08-21T03:07:13;8.25;;;1.88;;
80987;SDS011;70452;39.386;-3.210;2023-08-21T03:09:39;5.25;;;1.63;;
80987;SDS011;70452;39.386;-3.210;2023-08-21T03:12:05;4.60;;;1.27;;
80987;SDS011;70452;39.386;-3.210;2023-08-21T03:14:32;7.10;;;1.35;;
80987;SDS011;70452;39.386;-3.210;2023-08-21T03:16:57;5.40;;;1.52;;
80987;SDS011;70452;39.386;-3.210;2023-08-21T03:19:23;4.47;;;1.35;;
80987;SDS011;70452;39.386;-3.210;2023-08-21T03:21:48;6.95;;;1.08;;
80987;SDS011;70452;39.386;-3.210;2023-08-21T03:24:14;5.25;;;1.58;;
80987;SDS011;70452;39.386;-3.210;2023-08-21T03:26:39;5.85;;;1.30;;
80987;SDS011;70452;39.386;-3.210;2023-08-21T03:29:05;4.85;;;1.27;;
80987;SDS011;70452;39.386;-3.210;2023-08-21T03:31:31;5.75;;;1.40;;
80987;SDS011;70452;39.386;-3.210;2023-08-21T03:33:56;5.85;;;1.77;;
80987;SDS011;70452;39.386;-3.210;2023-08-21T03:36:22;9.27;;;1.95;;
80987;SDS011;70452;39.386;-3.210;2023-08-21T03:39:01;4.80;;;1.42;;
80987;SDS011;70452;39.386;-3.210;2023-08-21T03:41:27;5.95;;;1.02;;
80987;SDS011;70452;39.386;-3.210;2023-08-21T03:43:53;4.45;;;0.93;;
80987;SDS011;70452;39.386;-3.210;2023-08-21T03:46:19;5.60;;;1.27;;
80987;SDS011;70452;39.386;-3.210;2023-08-21T03:48:44;4.90;;;1.33;;
80987;SDS011;70452;39.386;-3.210;2023-08-21T03:51:10;5.75;;;1.27;;
80987;SDS011;70452;39.386;-3.210;2023-08-21T03:53:35;3.92;;;1.25;;
80987;SDS011;70452;39.386;-3.210;2023-08-21T03:56:01;7.22;;;1.10;;
80987;SDS011;70452;39.386;-3.210;2023-08-21T03:58:26;3.88;;;0.98;;
80987;SDS011;70452;39.386;-3.210;2023-08-21T04:00:55;3.97;;;1.10;;
80987;SDS011;70452;39.386;-3.210;2023-08-21T04:03:21;4.47;;;1.10;;
80987;SDS011;70452;39.386;-3.210;2023-08-21T04:05:46;4.05;;;1.08;;
80987;SDS011;70452;39.386;-3.210;2023-08-21T04:08:12;5.80;;;0.93;;
80987;SDS011;70452;39.386;-3.210;2023-08-21T04:10:38;6.57;;;0.95;;
80987;SDS011;70452;39.386;-3.210;2023-08-21T04:13:07;5.43;;;1.00;;
80987;SDS011;70452;39.386;-3.210;2023-08-21T04:15:33;4.68;;;0.95;;
80987;SDS011;70452;39.386;-3.210;2023-08-21T04:18:00;3.67;;;0.85;;
80987;SDS011;70452;39.386;-3.210;2023-08-21T04:20:26;5.60;;;0.77;;
80987;SDS011;70452;39.386;-3.210;2023-08-21T04:22:51;5.32;;;0.95;;
80987;SDS011;70452;39.386;-3.210;2023-08-21T04:25:16;6.07;;;0.82;;
80987;SDS011;70452;39.386;-3.210;2023-08-21T04:27:42;4.60;;;0.90;;
80987;SDS011;70452;39.386;-3.210;2023-08-21T04:30:08;4.32;;;0.77;;
80987;SDS011;70452;39.386;-3.210;2023-08-21T04:32:35;4.07;;;0.70;;
80987;SDS011;70452;39.386;-3.210;2023-08-21T04:35:00;4.32;;;1.15;;
80987;SDS011;70452;39.386;-3.210;2023-08-21T04:37:26;6.93;;;1.05;;
80987;SDS011;70452;39.386;-3.210;2023-08-21T04:39:55;5.07;;;0.80;;
80987;SDS011;70452;39.386;-3.210;2023-08-21T04:42:21;5.07;;;1.50;;
80987;SDS011;70452;39.386;-3.210;2023-08-21T04:44:48;5.45;;;0.80;;
80987;SDS011;70452;39.386;-3.210;2023-08-21T04:47:24;5.28;;;0.80;;
80987;SDS011;70452;39.386;-3.210;2023-08-21T04:49:53;5.47;;;0.95;;
80987;SDS011;70452;39.386;-3.210;2023-08-21T04:52:20;4.35;;;1.08;;
80987;SDS011;70452;39.386;-3.210;2023-08-21T04:54:48;4.75;;;0.95;;
80987;SDS011;70452;39.386;-3.210;2023-08-21T04:57:14;4.93;;;1.30;;
80987;SDS011;70452;39.386;-3.210;2023-08-21T04:59:40;5.50;;;1.15;;
80987;SDS011;70452;39.386;-3.210;2023-08-21T05:02:07;4.50;;;0.98;;
80987;SDS011;70452;39.386;-3.210;2023-08-21T05:04:32;4.70;;;1.23;;
80987;SDS011;70452;39.386;-3.210;2023-08-21T05:06:59;6.10;;;1.70;;
80987;SDS011;70452;39.386;-3.210;2023-08-21T05:09:25;4.25;;;1.38;;
80987;SDS011;70452;39.386;-3.210;2023-08-21T05:11:51;5.05;;;1.00;;
80987;SDS011;70452;39.386;-3.210;2023-08-21T05:14:16;4.32;;;0.90;;
80987;SDS011;70452;39.386;-3.210;2023-08-21T05:16:44;7.22;;;1.05;;
80987;SDS011;70452;39.386;-3.210;2023-08-21T05:19:10;5.68;;;1.20;;
80987;SDS011;70452;39.386;-3.210;2023-08-21T05:21:36;5.43;;;1.40;;
80987;SDS011;70452;39.386;-3.210;2023-08-21T05:24:01;5.10;;;1.10;;
80987;SDS011;70452;39.386;-3.210;2023-08-21T05:26:27;5.13;;;1.73;;
80987;SDS011;70452;39.386;-3.210;2023-08-21T05:28:54;6.38;;;1.23;;
80987;SDS011;70452;39.386;-3.210;2023-08-21T05:31:19;6.60;;;1.42;;
80987;SDS011;70452;39.386;-3.210;2023-08-21T05:33:45;5.22;;;1.13;;
80987;SDS011;70452;39.386;-3.210;2023-08-21T05:36:10;3.85;;;1.10;;
80987;SDS011;70452;39.386;-3.210;2023-08-21T05:38:36;7.05;;;1.38;;
80987;SDS011;70452;39.386;-3.210;2023-08-21T05:41:01;9.68;;;1.15;;
80987;SDS011;70452;39.386;-3.210;2023-08-21T05:43:27;10.23;;;1.88;;
80987;SDS011;70452;39.386;-3.210;2023-08-21T05:45:52;5.50;;;1.35;;
80987;SDS011;70452;39.386;-3.210;2023-08-21T05:48:18;5.75;;;1.30;;
80987;SDS011;70452;39.386;-3.210;2023-08-21T05:50:43;7.38;;;1.33;;
80987;SDS011;70452;39.386;-3.210;2023-08-21T05:53:09;8.82;;;1.83;;
80987;SDS011;70452;39.386;-3.210;2023-08-21T05:55:36;5.82;;;1.27;;
80987;SDS011;70452;39.386;-3.210;2023-08-21T05:58:02;6.30;;;1.45;;
80987;SDS011;70452;39.386;-3.210;2023-08-21T06:00:27;9.18;;;1.75;;
80987;SDS011;70452;39.386;-3.210;2023-08-21T06:02:53;8.50;;;2.33;;
80987;SDS011;70452;39.386;-3.210;2023-08-21T06:05:18;8.20;;;1.63;;
80987;SDS011;70452;39.386;-3.210;2023-08-21T06:07:44;7.55;;;1.35;;
80987;SDS011;70452;39.386;-3.210;2023-08-21T06:10:10;9.93;;;1.80;;
80987;SDS011;70452;39.386;-3.210;2023-08-21T06:12:40;9.45;;;1.88;;
80987;SDS011;70452;39.386;-3.210;2023-08-21T06:15:07;6.80;;;1.50;;
80987;SDS011;70452;39.386;-3.210;2023-08-21T06:17:34;8.93;;;1.80;;
80987;SDS011;70452;39.386;-3.210;2023-08-21T06:19:59;8.10;;;2.03;;
80987;SDS011;70452;39.386;-3.210;2023-08-21T06:22:25;9.82;;;2.00;;
80987;SDS011;70452;39.386;-3.210;2023-08-21T06:24:51;6.78;;;1.70;;
80987;SDS011;70452;39.386;-3.210;2023-08-21T06:27:17;8.32;;;1.67;;
80987;SDS011;70452;39.386;-3.210;2023-08-21T06:29:42;8.18;;;2.10;;
80987;SDS011;70452;39.386;-3.210;2023-08-21T06:32:08;7.20;;;1.80;;
80987;SDS011;70452;39.386;-3.210;2023-08-21T06:34:34;7.13;;;2.10;;
80987;SDS011;70452;39.386;-3.210;2023-08-21T06:36:59;9.43;;;2.35;;
80987;SDS011;70452;39.386;-3.210;2023-08-21T06:39:25;8.60;;;2.67;;
80987;SDS011;70452;39.386;-3.210;2023-08-21T06:41:51;6.38;;;2.08;;
80987;SDS011;70452;39.386;-3.210;2023-08-21T06:44:16;8.73;;;2.10;;
80987;SDS011;70452;39.386;-3.210;2023-08-21T06:46:42;7.97;;;2.22;;
80987;SDS011;70452;39.386;-3.210;2023-08-21T06:49:08;5.60;;;1.95;;
80987;SDS011;70452;39.386;-3.210;2023-08-21T06:51:33;7.93;;;2.42;;
80987;SDS011;70452;39.386;-3.210;2023-08-21T06:53:59;7.03;;;2.10;;
80987;SDS011;70452;39.386;-3.210;2023-08-21T06:56:24;10.00;;;3.20;;
80987;SDS011;70452;39.386;-3.210;2023-08-21T06:58:50;10.07;;;1.92;;
80987;SDS011;70452;39.386;-3.210;2023-08-21T07:01:21;7.18;;;2.30;;
80987;SDS011;70452;39.386;-3.210;2023-08-21T07:03:54;6.28;;;1.77;;
80987;SDS011;70452;39.386;-3.210;2023-08-21T07:06:20;12.13;;;3.10;;
80987;SDS011;70452;39.386;-3.210;2023-08-21T07:08:46;12.05;;;3.65;;
80987;SDS011;70452;39.386;-3.210;2023-08-21T07:11:11;15.65;;;3.55;;
80987;SDS011;70452;39.386;-3.210;2023-08-21T07:13:37;7.82;;;1.90;;
80987;SDS011;70452;39.386;-3.210;2023-08-21T07:16:03;6.35;;;2.22;;
80987;SDS011;70452;39.386;-3.210;2023-08-21T07:18:33;8.40;;;2.38;;
80987;SDS011;70452;39.386;-3.210;2023-08-21T07:21:00;8.20;;;2.00;;
80987;SDS011;70452;39.386;-3.210;2023-08-21T07:23:27;8.23;;;1.77;;
80987;SDS011;70452;39.386;-3.210;2023-08-21T07:25:53;11.43;;;2.97;;
80987;SDS011;70452;39.386;-3.210;2023-08-21T07:28:19;6.97;;;2.25;;
80987;SDS011;70452;39.386;-3.210;2023-08-21T07:30:44;8.65;;;2.65;;
80987;SDS011;70452;39.386;-3.210;2023-08-21T07:33:10;10.18;;;2.22;;
80987;SDS011;70452;39.386;-3.210;2023-08-21T07:35:36;8.20;;;2.78;;
80987;SDS011;70452;39.386;-3.210;2023-08-21T07:38:01;7.97;;;2.58;;
80987;SDS011;70452;39.386;-3.210;2023-08-21T07:40:27;12.23;;;3.90;;
80987;SDS011;70452;39.386;-3.210;2023-08-21T07:42:53;9.40;;;2.38;;
80987;SDS011;70452;39.386;-3.210;2023-08-21T07:45:19;9.77;;;2.00;;
80987;SDS011;70452;39.386;-3.210;2023-08-21T07:47:44;9.15;;;2.22;;
80987;SDS011;70452;39.386;-3.210;2023-08-21T07:50:10;9.32;;;2.50;;
80987;SDS011;70452;39.386;-3.210;2023-08-21T07:52:37;13.70;;;2.90;;
80987;SDS011;70452;39.386;-3.210;2023-08-21T07:55:02;6.57;;;2.20;;
80987;SDS011;70452;39.386;-3.210;2023-08-21T07:57:29;11.38;;;2.60;;
80987;SDS011;70452;39.386;-3.210;2023-08-21T07:59:55;7.85;;;3.13;;
80987;SDS011;70452;39.386;-3.210;2023-08-21T08:02:21;11.00;;;3.28;;
80987;SDS011;70452;39.386;-3.210;2023-08-21T08:04:48;7.45;;;2.08;;
80987;SDS011;70452;39.386;-3.210;2023-08-21T08:07:13;7.13;;;2.97;;
80987;SDS011;70452;39.386;-3.210;2023-08-21T08:09:39;8.52;;;2.83;;
80987;SDS011;70452;39.386;-3.210;2023-08-21T08:12:05;17.58;;;2.88;;
80987;SDS011;70452;39.386;-3.210;2023-08-21T08:14:31;13.77;;;2.75;;
80987;SDS011;70452;39.386;-3.210;2023-08-21T08:16:57;8.15;;;2.22;;
80987;SDS011;70452;39.386;-3.210;2023-08-21T08:19:22;13.35;;;3.08;;
80987;SDS011;70452;39.386;-3.210;2023-08-21T08:21:48;10.02;;;3.38;;
80987;SDS011;70452;39.386;-3.210;2023-08-21T08:24:13;10.15;;;3.45;;
80987;SDS011;70452;39.386;-3.210;2023-08-21T08:26:39;8.20;;;2.47;;
80987;SDS011;70452;39.386;-3.210;2023-08-21T08:29:07;9.90;;;3.03;;
80987;SDS011;70452;39.386;-3.210;2023-08-21T08:31:32;10.80;;;3.03;;
80987;SDS011;70452;39.386;-3.210;2023-08-21T08:33:58;10.38;;;2.42;;
80987;SDS011;70452;39.386;-3.210;2023-08-21T08:36:23;7.43;;;2.45;;
80987;SDS011;70452;39.386;-3.210;2023-08-21T08:38:49;9.70;;;2.60;;
80987;SDS011;70452;39.386;-3.210;2023-08-21T08:41:27;9.50;;;2.58;;
80987;SDS011;70452;39.386;-3.210;2023-08-21T08:43:58;7.50;;;2.53;;
80987;SDS011;70452;39.386;-3.210;2023-08-21T08:46:27;8.85;;;2.92;;
80987;SDS011;70452;39.386;-3.210;2023-08-21T08:48:55;8.57;;;3.03;;
80987;SDS011;70452;39.386;-3.210;2023-08-21T08:51:22;8.75;;;2.70;;
80987;SDS011;70452;39.386;-3.210;2023-08-21T08:53:50;10.68;;;2.13;;
80987;SDS011;70452;39.386;-3.210;2023-08-21T08:56:16;9.48;;;2.13;;
80987;SDS011;70452;39.386;-3.210;2023-08-21T08:58:41;6.13;;;1.73;;
80987;SDS011;70452;39.386;-3.210;2023-08-21T09:01:08;6.15;;;1.85;;
80987;SDS011;70452;39.386;-3.210;2023-08-21T09:03:38;10.43;;;2.80;;
80987;SDS011;70452;39.386;-3.210;2023-08-21T09:06:03;9.20;;;2.42;;
80987;SDS011;70452;39.386;-3.210;2023-08-21T09:08:29;10.02;;;3.28;;
80987;SDS011;70452;39.386;-3.210;2023-08-21T09:10:56;7.70;;;2.47;;
80987;SDS011;70452;39.386;-3.210;2023-08-21T09:13:27;8.80;;;2.67;;
80987;SDS011;70452;39.386;-3.210;2023-08-21T09:15:53;6.90;;;3.22;;
80987;SDS011;70452;39.386;-3.210;2023-08-21T09:18:21;7.47;;;2.78;;
80987;SDS011;70452;39.386;-3.210;2023-08-21T09:20:46;7.88;;;2.63;;
80987;SDS011;70452;39.386;-3.210;2023-08-21T09:23:16;7.57;;;2.28;;
80987;SDS011;70452;39.386;-3.210;2023-08-21T09:25:47;7.05;;;2.03;;
80987;SDS011;70452;39.386;-3.210;2023-08-21T09:28:13;12.07;;;3.33;;
80987;SDS011;70452;39.386;-3.210;2023-08-21T09:33:22;7.82;;;2.20;;
80987;SDS011;70452;39.386;-3.210;2023-08-21T09:35:49;8.00;;;2.03;;
80987;SDS011;70452;39.386;-3.210;2023-08-21T09:38:17;6.95;;;2.58;;
80987;SDS011;70452;39.386;-3.210;2023-08-21T09:40:49;6.93;;;2.35;;
80987;SDS011;70452;39.386;-3.210;2023-08-21T09:43:17;9.27;;;2.15;;
80987;SDS011;70452;39.386;-3.210;2023-08-21T09:45:45;7.60;;;2.40;;
80987;SDS011;70452;39.386;-3.210;2023-08-21T09:48:14;8.30;;;2.85;;
80987;SDS011;70452;39.386;-3.210;2023-08-21T09:50:41;7.07;;;2.55;;
80987;SDS011;70452;39.386;-3.210;2023-08-21T09:53:09;8.70;;;3.00;;
80987;SDS011;70452;39.386;-3.210;2023-08-21T09:55:35;9.25;;;3.05;;
80987;SDS011;70452;39.386;-3.210;2023-08-21T09:58:01;7.10;;;2.65;;
80987;SDS011;70452;39.386;-3.210;2023-08-21T10:00:34;7.00;;;2.85;;
80987;SDS011;70452;39.386;-3.210;2023-08-21T10:03:06;6.65;;;2.30;;
80987;SDS011;70452;39.386;-3.210;2023-08-21T10:05:36;7.80;;;2.65;;
80987;SDS011;70452;39.386;-3.210;2023-08-21T10:08:03;6.22;;;2.72;;
80987;SDS011;70452;39.386;-3.210;2023-08-21T10:10:31;7.32;;;2.30;;
80987;SDS011;70452;39.386;-3.210;2023-08-21T10:12:59;7.70;;;2.30;;
80987;SDS011;70452;39.386;-3.210;2023-08-21T10:15:25;8.38;;;2.15;;
80987;SDS011;70452;39.386;-3.210;2023-08-21T10:17:53;9.35;;;2.38;;
80987;SDS011;70452;39.386;-3.210;2023-08-21T10:20:22;6.85;;;3.03;;
80987;SDS011;70452;39.386;-3.210;2023-08-21T10:22:51;10.05;;;2.50;;
80987;SDS011;70452;39.386;-3.210;2023-08-21T10:25:23;8.68;;;2.72;;
80987;SDS011;70452;39.386;-3.210;2023-08-21T10:27:54;6.35;;;2.00;;
80987;SDS011;70452;39.386;-3.210;2023-08-21T10:30:22;7.80;;;2.03;;
80987;SDS011;70452;39.386;-3.210;2023-08-21T10:32:50;8.15;;;2.55;;
80987;SDS011;70452;39.386;-3.210;2023-08-21T10:35:24;5.88;;;2.35;;
80987;SDS011;70452;39.386;-3.210;2023-08-21T10:43:39;11.45;;;3.10;;
80987;SDS011;70452;39.386;-3.210;2023-08-21T10:46:06;5.72;;;2.45;;
80987;SDS011;70452;39.386;-3.210;2023-08-21T10:48:32;8.38;;;2.13;;
80987;SDS011;70452;39.386;-3.210;2023-08-21T10:51:00;6.22;;;1.83;;
80987;SDS011;70452;39.386;-3.210;2023-08-21T10:53:32;6.60;;;2.20;;
80987;SDS011;70452;39.386;-3.210;2023-08-21T10:56:05;9.18;;;2.33;;
80987;SDS011;70452;39.386;-3.210;2023-08-21T10:58:42;12.75;;;3.15;;
80987;SDS011;70452;39.386;-3.210;2023-08-21T11:01:12;7.70;;;3.03;;
80987;SDS011;70452;39.386;-3.210;2023-08-21T11:03:39;10.00;;;2.47;;
80987;SDS011;70452;39.386;-3.210;2023-08-21T11:06:05;8.07;;;2.45;;
80987;SDS011;70452;39.386;-3.210;2023-08-21T11:08:33;8.57;;;3.35;;
80987;SDS011;70452;39.386;-3.210;2023-08-21T11:11:00;7.63;;;2.15;;
80987;SDS011;70452;39.386;-3.210;2023-08-21T11:13:26;8.35;;;2.83;;
80987;SDS011;70452;39.386;-3.210;2023-08-21T11:16:00;6.53;;;3.22;;
80987;SDS011;70452;39.386;-3.210;2023-08-21T11:18:35;9.00;;;2.53;;
80987;SDS011;70452;39.386;-3.210;2023-08-21T11:21:03;5.88;;;2.42;;
80987;SDS011;70452;39.386;-3.210;2023-08-21T11:23:39;12.98;;;3.85;;
80987;SDS011;70452;39.386;-3.210;2023-08-21T11:26:06;8.75;;;2.75;;
80987;SDS011;70452;39.386;-3.210;2023-08-21T11:28:35;6.95;;;2.63;;
80987;SDS011;70452;39.386;-3.210;2023-08-21T11:31:01;6.32;;;2.05;;
80987;SDS011;70452;39.386;-3.210;2023-08-21T11:33:32;6.40;;;2.38;;
80987;SDS011;70452;39.386;-3.210;2023-08-21T11:35:57;9.02;;;2.75;;
80987;SDS011;70452;39.386;-3.210;2023-08-21T11:38:25;9.65;;;2.80;;
80987;SDS011;70452;39.386;-3.210;2023-08-21T11:40:59;8.32;;;2.60;;
80987;SDS011;70452;39.386;-3.210;2023-08-21T11:46:01;9.35;;;3.03;;
80987;SDS011;70452;39.386;-3.210;2023-08-21T11:48:29;6.80;;;2.83;;
80987;SDS011;70452;39.386;-3.210;2023-08-21T11:50:58;8.30;;;2.75;;
80987;SDS011;70452;39.386;-3.210;2023-08-21T11:53:31;9.63;;;3.55;;
80987;SDS011;70452;39.386;-3.210;2023-08-21T11:56:00;9.23;;;2.42;;
80987;SDS011;70452;39.386;-3.210;2023-08-21T11:58:27;8.57;;;2.95;;
80987;SDS011;70452;39.386;-3.210;2023-08-21T12:00:53;6.57;;;2.47;;
80987;SDS011;70452;39.386;-3.210;2023-08-21T12:03:19;6.43;;;2.47;;
80987;SDS011;70452;39.386;-3.210;2023-08-21T12:05:45;6.38;;;3.28;;
80987;SDS011;70452;39.386;-3.210;2023-08-21T12:08:12;8.32;;;2.80;;
80987;SDS011;70452;39.386;-3.210;2023-08-21T12:10:37;5.88;;;2.45;;
80987;SDS011;70452;39.386;-3.210;2023-08-21T12:13:03;6.25;;;1.92;;
80987;SDS011;70452;39.386;-3.210;2023-08-21T12:15:28;9.15;;;3.72;;
80987;SDS011;70452;39.386;-3.210;2023-08-21T12:17:54;6.38;;;2.42;;
80987;SDS011;70452;39.386;-3.210;2023-08-21T12:20:20;6.07;;;2.13;;
80987;SDS011;70452;39.386;-3.210;2023-08-21T12:22:46;11.43;;;3.28;;
80987;SDS011;70452;39.386;-3.210;2023-08-21T12:25:12;6.43;;;2.28;;
80987;SDS011;70452;39.386;-3.210;2023-08-21T12:27:38;4.90;;;2.28;;
80987;SDS011;70452;39.386;-3.210;2023-08-21T12:30:04;8.35;;;2.08;;
80987;SDS011;70452;39.386;-3.210;2023-08-21T12:32:34;6.45;;;2.50;;
80987;SDS011;70452;39.386;-3.210;2023-08-21T12:35:00;11.10;;;2.50;;
80987;SDS011;70452;39.386;-3.210;2023-08-21T12:37:25;7.38;;;3.67;;
80987;SDS011;70452;39.386;-3.210;2023-08-21T12:39:51;8.13;;;3.38;;
80987;SDS011;70452;39.386;-3.210;2023-08-21T12:42:16;8.85;;;4.78;;
80987;SDS011;70452;39.386;-3.210;2023-08-21T12:44:43;6.43;;;2.75;;
80987;SDS011;70452;39.386;-3.210;2023-08-21T12:47:08;8.02;;;2.65;;
80987;SDS011;70452;39.386;-3.210;2023-08-21T12:49:34;5.57;;;3.15;;
80987;SDS011;70452;39.386;-3.210;2023-08-21T12:52:02;5.63;;;3.50;;
80987;SDS011;70452;39.386;-3.210;2023-08-21T12:54:31;5.78;;;3.38;;
80987;SDS011;70452;39.386;-3.210;2023-08-21T12:56:57;6.57;;;4.00;;
80987;SDS011;70452;39.386;-3.210;2023-08-21T12:59:23;7.28;;;3.13;;
80987;SDS011;70452;39.386;-3.210;2023-08-21T13:01:48;5.57;;;2.40;;
80987;SDS011;70452;39.386;-3.210;2023-08-21T13:04:14;7.35;;;4.00;;
80987;SDS011;70452;39.386;-3.210;2023-08-21T13:06:39;5.47;;;2.38;;
80987;SDS011;70452;39.386;-3.210;2023-08-21T13:09:05;6.85;;;2.97;;
80987;SDS011;70452;39.386;-3.210;2023-08-21T13:11:32;7.43;;;3.03;;
80987;SDS011;70452;39.386;-3.210;2023-08-21T13:13:58;8.65;;;3.22;;
80987;SDS011;70452;39.386;-3.210;2023-08-21T13:16:24;6.55;;;2.83;;
80987;SDS011;70452;39.386;-3.210;2023-08-21T13:18:49;7.30;;;3.03;;
80987;SDS011;70452;39.386;-3.210;2023-08-21T13:21:15;8.20;;;2.63;;
80987;SDS011;70452;39.386;-3.210;2023-08-21T13:23:40;7.45;;;2.25;;
80987;SDS011;70452;39.386;-3.210;2023-08-21T13:26:06;5.05;;;2.17;;
80987;SDS011;70452;39.386;-3.210;2023-08-21T13:28:31;6.47;;;3.38;;
80987;SDS011;70452;39.386;-3.210;2023-08-21T13:31:02;7.00;;;3.17;;
80987;SDS011;70452;39.386;-3.210;2023-08-21T13:33:28;7.35;;;3.08;;
80987;SDS011;70452;39.386;-3.210;2023-08-21T13:35:56;5.65;;;3.13;;
80987;SDS011;70452;39.386;-3.210;2023-08-21T13:38:21;7.68;;;3.70;;
80987;SDS011;70452;39.386;-3.210;2023-08-21T13:40:47;8.07;;;3.00;;
80987;SDS011;70452;39.386;-3.210;2023-08-21T13:43:13;7.03;;;3.05;;
80987;SDS011;70452;39.386;-3.210;2023-08-21T13:45:39;4.88;;;2.22;;
80987;SDS011;70452;39.386;-3.210;2023-08-21T13:48:07;6.05;;;2.92;;
80987;SDS011;70452;39.386;-3.210;2023-08-21T13:50:33;8.70;;;3.00;;
80987;SDS011;70452;39.386;-3.210;2023-08-21T13:52:59;6.47;;;3.25;;
80987;SDS011;70452;39.386;-3.210;2023-08-21T13:55:24;6.47;;;2.55;;
80987;SDS011;70452;39.386;-3.210;2023-08-21T13:57:51;8.75;;;3.78;;
80987;SDS011;70452;39.386;-3.210;2023-08-21T14:00:16;9.95;;;3.50;;
80987;SDS011;70452;39.386;-3.210;2023-08-21T14:02:43;5.90;;;2.55;;
80987;SDS011;70452;39.386;-3.210;2023-08-21T14:05:13;6.95;;;3.13;;
80987;SDS011;70452;39.386;-3.210;2023-08-21T14:07:39;7.00;;;2.83;;
80987;SDS011;70452;39.386;-3.210;2023-08-21T14:10:05;7.60;;;3.05;;
80987;SDS011;70452;39.386;-3.210;2023-08-21T14:12:32;9.50;;;4.35;;
80987;SDS011;70452;39.386;-3.210;2023-08-21T14:14:58;6.32;;;2.28;;
80987;SDS011;70452;39.386;-3.210;2023-08-21T14:17:24;7.07;;;2.03;;
80987;SDS011;70452;39.386;-3.210;2023-08-21T14:19:50;5.32;;;1.85;;
80987;SDS011;70452;39.386;-3.210;2023-08-21T14:22:16;7.07;;;3.05;;
80987;SDS011;70452;39.386;-3.210;2023-08-21T14:24:41;6.50;;;2.17;;
80987;SDS011;70452;39.386;-3.210;2023-08-21T14:27:07;6.10;;;3.78;;
80987;SDS011;70452;39.386;-3.210;2023-08-21T14:29:32;8.88;;;2.47;;
80987;SDS011;70452;39.386;-3.210;2023-08-21T14:31:58;7.88;;;3.20;;
80987;SDS011;70452;39.386;-3.210;2023-08-21T14:34:25;8.48;;;3.13;;
80987;SDS011;70452;39.386;-3.210;2023-08-21T14:36:52;8.43;;;3.60;;
80987;SDS011;70452;39.386;-3.210;2023-08-21T14:39:21;8.23;;;5.78;;
80987;SDS011;70452;39.386;-3.210;2023-08-21T14:41:58;5.32;;;2.63;;
80987;SDS011;70452;39.386;-3.210;2023-08-21T14:44:24;4.22;;;2.08;;
80987;SDS011;70452;39.386;-3.210;2023-08-21T14:46:52;5.47;;;3.13;;